sensor_id;sensor_type;location;lat;lon;timestamp;pressure;altitude;pressure_sealevel;temperature;humidity
44453;BME280;30155;52.164;21.236;2022-11-15T00:03:26;100986.27;;;6.29;86.16
44453;BME280;30155;52.164;21.236;2022-11-15T00:08:39;100975.14;;;6.30;86.25
44453;BME280;30155;52.164;21.236;2022-11-15T00:13:49;100969.04;;;6.28;86.22
44453;BME280;30155;52.164;21.236;2022-11-15T00:18:59;100969.04;;;6.28;86.22
44453;BME280;30155;52.164;21.236;2022-11-15T00:24:08;100957.87;;;6.29;86.34
44453;BME280;30155;52.164;21.236;2022-11-15T00:29:18;100961.62;;;6.26;86.36
44453;BME280;30155;52.164;21.236;2022-11-15T00:34:28;100953.42;;;6.25;86.40
44453;BME280;30155;52.164;21.236;2022-11-15T00:39:37;100947.41;;;6.26;86.41
44453;BME280;30155;52.164;21.236;2022-11-15T00:44:47;100939.94;;;6.21;86.41
44453;BME280;30155;52.164;21.236;2022-11-15T00:49:56;100928.31;;;6.21;86.43
44453;BME280;30155;52.164;21.236;2022-11-15T00:55:06;100917.86;;;6.18;86.59
44453;BME280;30155;52.164;21.236;2022-11-15T01:00:16;100910.92;;;6.17;86.50
44453;BME280;30155;52.164;21.236;2022-11-15T01:05:26;100904.77;;;6.13;86.57
44453;BME280;30155;52.164;21.236;2022-11-15T01:10:37;100872.85;;;6.11;86.57
44453;BME280;30155;52.164;21.236;2022-11-15T01:15:47;100875.56;;;6.14;86.96
44453;BME280;30155;52.164;21.236;2022-11-15T01:20:56;100875.56;;;6.14;86.96
44453;BME280;30155;52.164;21.236;2022-11-15T01:26:09;100878.14;;;6.14;86.75
44453;BME280;30155;52.164;21.236;2022-11-15T01:31:20;100869.84;;;6.11;86.74
44453;BME280;30155;52.164;21.236;2022-11-15T01:36:30;100867.63;;;6.09;86.68
44453;BME280;30155;52.164;21.236;2022-11-15T01:41:41;100858.95;;;6.07;86.92
44453;BME280;30155;52.164;21.236;2022-11-15T01:46:50;100842.17;;;6.07;86.91
44453;BME280;30155;52.164;21.236;2022-11-15T01:57:24;100823.53;;;6.03;87.08
44453;BME280;30155;52.164;21.236;2022-11-15T02:02:35;100803.60;;;5.99;87.02
44453;BME280;30155;52.164;21.236;2022-11-15T02:07:47;100807.05;;;6.00;87.06
44453;BME280;30155;52.164;21.236;2022-11-15T02:12:59;100825.69;;;6.04;87.48
44453;BME280;30155;52.164;21.236;2022-11-15T02:18:26;100813.33;;;6.06;87.32
44453;BME280;30155;52.164;21.236;2022-11-15T02:29:14;100802.87;;;6.03;87.22
44453;BME280;30155;52.164;21.236;2022-11-15T02:40:14;100780.31;;;5.98;87.22
44453;BME280;30155;52.164;21.236;2022-11-15T02:45:28;100784.98;;;5.97;87.44
44453;BME280;30155;52.164;21.236;2022-11-15T02:50:42;100784.81;;;5.92;87.34
44453;BME280;30155;52.164;21.236;2022-11-15T02:55:53;100791.70;;;5.93;87.55
44453;BME280;30155;52.164;21.236;2022-11-15T03:06:48;100780.09;;;5.93;87.47
44453;BME280;30155;52.164;21.236;2022-11-15T03:12:14;100765.45;;;5.92;87.56
44453;BME280;30155;52.164;21.236;2022-11-15T03:17:32;100764.48;;;5.90;87.64
44453;BME280;30155;52.164;21.236;2022-11-15T03:22:43;100755.81;;;5.88;87.68
44453;BME280;30155;52.164;21.236;2022-11-15T03:27:55;100751.38;;;5.84;87.72
44453;BME280;30155;52.164;21.236;2022-11-15T03:33:08;100746.22;;;5.84;87.65
44453;BME280;30155;52.164;21.236;2022-11-15T03:38:24;100735.33;;;5.80;87.73
44453;BME280;30155;52.164;21.236;2022-11-15T03:43:51;100724.59;;;5.80;87.88
44453;BME280;30155;52.164;21.236;2022-11-15T03:49:08;100713.39;;;5.80;87.92
44453;BME280;30155;52.164;21.236;2022-11-15T03:54:37;100718.02;;;5.77;87.77
44453;BME280;30155;52.164;21.236;2022-11-15T03:59:53;100704.61;;;5.75;87.94
44453;BME280;30155;52.164;21.236;2022-11-15T04:05:03;100691.70;;;5.75;87.96
44453;BME280;30155;52.164;21.236;2022-11-15T04:10:13;100685.62;;;5.72;87.95
44453;BME280;30155;52.164;21.236;2022-11-15T04:15:24;100689.00;;;5.71;88.00
44453;BME280;30155;52.164;21.236;2022-11-15T04:20:33;100680.34;;;5.69;87.94
44453;BME280;30155;52.164;21.236;2022-11-15T04:26:02;100676.91;;;5.70;88.12
44453;BME280;30155;52.164;21.236;2022-11-15T04:31:18;100678.33;;;5.73;88.19
44453;BME280;30155;52.164;21.236;2022-11-15T04:36:27;100668.84;;;5.72;87.99
44453;BME280;30155;52.164;21.236;2022-11-15T04:41:55;100666.27;;;5.72;88.16
44453;BME280;30155;52.164;21.236;2022-11-15T04:47:05;100665.42;;;5.73;88.07
44453;BME280;30155;52.164;21.236;2022-11-15T04:52:14;100665.67;;;5.68;88.10
44453;BME280;30155;52.164;21.236;2022-11-15T04:57:24;100656.64;;;5.68;87.96
44453;BME280;30155;52.164;21.236;2022-11-15T05:02:34;100660.30;;;5.62;87.93
44453;BME280;30155;52.164;21.236;2022-11-15T05:08:02;100657.72;;;5.62;88.06
44453;BME280;30155;52.164;21.236;2022-11-15T05:13:11;100651.72;;;5.63;88.23
44453;BME280;30155;52.164;21.236;2022-11-15T05:18:21;100649.92;;;5.61;88.11
44453;BME280;30155;52.164;21.236;2022-11-15T05:23:31;100647.23;;;5.58;88.13
44453;BME280;30155;52.164;21.236;2022-11-15T05:28:40;100645.31;;;5.52;88.28
44453;BME280;30155;52.164;21.236;2022-11-15T05:33:50;100632.41;;;5.52;88.45
44453;BME280;30155;52.164;21.236;2022-11-15T05:39:01;100630.88;;;5.57;88.49
44453;BME280;30155;52.164;21.236;2022-11-15T05:44:14;100638.74;;;5.60;88.52
44453;BME280;30155;52.164;21.236;2022-11-15T05:49:28;100636.97;;;5.59;88.45
44453;BME280;30155;52.164;21.236;2022-11-15T05:54:39;100632.73;;;5.61;88.65
44453;BME280;30155;52.164;21.236;2022-11-15T05:59:50;100639.55;;;5.59;88.34
44453;BME280;30155;52.164;21.236;2022-11-15T06:05:00;100641.08;;;5.54;88.42
44453;BME280;30155;52.164;21.236;2022-11-15T06:10:10;100634.25;;;5.54;88.58
44453;BME280;30155;52.164;21.236;2022-11-15T06:15:38;100641.02;;;5.52;88.60
44453;BME280;30155;52.164;21.236;2022-11-15T06:20:48;100632.41;;;5.52;88.68
44453;BME280;30155;52.164;21.236;2022-11-15T06:25:59;100639.22;;;5.50;88.69
44453;BME280;30155;52.164;21.236;2022-11-15T06:31:10;100641.44;;;5.52;88.77
44453;BME280;30155;52.164;21.236;2022-11-15T06:36:21;100638.00;;;5.51;88.94
44453;BME280;30155;52.164;21.236;2022-11-15T06:41:33;100636.83;;;5.54;88.95
44453;BME280;30155;52.164;21.236;2022-11-15T06:46:45;100639.79;;;5.54;88.81
44453;BME280;30155;52.164;21.236;2022-11-15T06:51:54;100640.42;;;5.60;89.05
44453;BME280;30155;52.164;21.236;2022-11-15T06:57:06;100642.36;;;5.65;88.90
44453;BME280;30155;52.164;21.236;2022-11-15T07:02:16;100643.38;;;5.70;88.99
44453;BME280;30155;52.164;21.236;2022-11-15T07:07:25;100651.84;;;5.66;88.47
44453;BME280;30155;52.164;21.236;2022-11-15T07:12:35;100657.93;;;5.68;88.82
44453;BME280;30155;52.164;21.236;2022-11-15T07:17:45;100648.90;;;5.68;88.54
44453;BME280;30155;52.164;21.236;2022-11-15T07:23:05;100648.39;;;5.66;88.61
44453;BME280;30155;52.164;21.236;2022-11-15T07:28:14;100645.75;;;5.64;88.63
44453;BME280;30155;52.164;21.236;2022-11-15T07:33:24;100647.22;;;5.69;88.88
44453;BME280;30155;52.164;21.236;2022-11-15T07:38:34;100641.64;;;5.69;88.58
44453;BME280;30155;52.164;21.236;2022-11-15T07:43:44;100646.69;;;5.66;88.63
44453;BME280;30155;52.164;21.236;2022-11-15T07:48:54;100636.25;;;5.63;88.31
44453;BME280;30155;52.164;21.236;2022-11-15T07:54:03;100632.86;;;5.64;88.61
44453;BME280;30155;52.164;21.236;2022-11-15T07:59:13;100629.31;;;5.73;88.67
44453;BME280;30155;52.164;21.236;2022-11-15T08:04:23;100625.19;;;5.79;88.35
44453;BME280;30155;52.164;21.236;2022-11-15T08:09:32;100622.97;;;5.77;88.28
44453;BME280;30155;52.164;21.236;2022-11-15T08:14:42;100623.54;;;5.81;88.12
44453;BME280;30155;52.164;21.236;2022-11-15T08:19:51;100610.39;;;5.86;88.37
44453;BME280;30155;52.164;21.236;2022-11-15T08:25:00;100605.70;;;5.87;88.11
44453;BME280;30155;52.164;21.236;2022-11-15T08:30:11;100596.61;;;5.85;87.87
44453;BME280;30155;52.164;21.236;2022-11-15T08:35:21;100597.17;;;5.89;88.01
44453;BME280;30155;52.164;21.236;2022-11-15T08:40:31;100594.17;;;5.90;87.63
44453;BME280;30155;52.164;21.236;2022-11-15T08:45:40;100595.63;;;5.95;87.93
44453;BME280;30155;52.164;21.236;2022-11-15T08:50:55;100592.89;;;6.01;87.79
44453;BME280;30155;52.164;21.236;2022-11-15T08:56:10;100586.02;;;6.02;87.09
44453;BME280;30155;52.164;21.236;2022-11-15T09:01:21;100592.16;;;6.05;87.42
44453;BME280;30155;52.164;21.236;2022-11-15T09:06:31;100570.14;;;6.17;87.32
44453;BME280;30155;52.164;21.236;2022-11-15T09:11:40;100576.39;;;6.23;87.45
44453;BME280;30155;52.164;21.236;2022-11-15T09:16:53;100570.54;;;6.29;87.13
44453;BME280;30155;52.164;21.236;2022-11-15T09:22:06;100562.90;;;6.32;86.97
44453;BME280;30155;52.164;21.236;2022-11-15T09:27:16;100563.27;;;6.30;86.91
44453;BME280;30155;52.164;21.236;2022-11-15T09:32:28;100552.67;;;6.35;87.30
44453;BME280;30155;52.164;21.236;2022-11-15T09:37:39;100541.13;;;6.38;86.68
44453;BME280;30155;52.164;21.236;2022-11-15T09:48:41;100530.62;;;6.32;86.45
44453;BME280;30155;52.164;21.236;2022-11-15T09:53:42;100524.27;;;6.35;86.88
44453;BME280;30155;52.164;21.236;2022-11-15T10:03:44;100508.20;;;6.45;86.33
44453;BME280;30155;52.164;21.236;2022-11-15T10:08:57;100498.25;;;6.43;86.18
44453;BME280;30155;52.164;21.236;2022-11-15T10:13:52;100497.05;;;6.46;86.39
44453;BME280;30155;52.164;21.236;2022-11-15T10:24:28;100490.22;;;6.48;85.87
44453;BME280;30155;52.164;21.236;2022-11-15T10:29:23;100501.84;;;6.48;86.12
44453;BME280;30155;52.164;21.236;2022-11-15T10:34:18;100501.84;;;6.48;86.12
44453;BME280;30155;52.164;21.236;2022-11-15T10:39:13;100492.91;;;6.52;86.41
44453;BME280;30155;52.164;21.236;2022-11-15T10:45:08;100490.97;;;6.59;86.56
44453;BME280;30155;52.164;21.236;2022-11-15T10:49:25;100482.69;;;6.56;86.00
44453;BME280;30155;52.164;21.236;2022-11-15T10:54:28;100478.87;;;6.58;85.98
44453;BME280;30155;52.164;21.236;2022-11-15T10:59:29;100467.17;;;6.55;85.84
44453;BME280;30155;52.164;21.236;2022-11-15T11:04:22;100459.77;;;6.53;85.39
44453;BME280;30155;52.164;21.236;2022-11-15T11:09:31;100459.77;;;6.53;85.39
44453;BME280;30155;52.164;21.236;2022-11-15T11:14:29;100456.75;;;6.52;86.01
44453;BME280;30155;52.164;21.236;2022-11-15T11:30:10;100430.44;;;6.51;86.08
44453;BME280;30155;52.164;21.236;2022-11-15T11:46:35;100439.42;;;6.47;85.89
44453;BME280;30155;52.164;21.236;2022-11-15T11:51:39;100434.25;;;6.47;86.30
44453;BME280;30155;52.164;21.236;2022-11-15T11:56:35;100418.66;;;6.44;86.15
44453;BME280;30155;52.164;21.236;2022-11-15T12:01:32;100418.66;;;6.44;86.15
44453;BME280;30155;52.164;21.236;2022-11-15T12:17:10;100392.27;;;6.55;86.24
44453;BME280;30155;52.164;21.236;2022-11-15T12:22:23;100390.17;;;6.57;86.20
44453;BME280;30155;52.164;21.236;2022-11-15T12:32:48;100384.72;;;6.62;86.11
44453;BME280;30155;52.164;21.236;2022-11-15T12:42:42;100371.23;;;6.73;86.42
44453;BME280;30155;52.164;21.236;2022-11-15T12:47:35;100366.08;;;6.74;86.13
44453;BME280;30155;52.164;21.236;2022-11-15T12:52:26;100365.25;;;6.75;86.37
44453;BME280;30155;52.164;21.236;2022-11-15T12:57:30;100363.97;;;6.75;86.25
44453;BME280;30155;52.164;21.236;2022-11-15T13:02:35;100347.02;;;6.69;86.08
44453;BME280;30155;52.164;21.236;2022-11-15T13:17:34;100344.67;;;6.78;86.40
44453;BME280;30155;52.164;21.236;2022-11-15T13:22:40;100343.77;;;6.76;86.38
44453;BME280;30155;52.164;21.236;2022-11-15T13:27:53;100340.33;;;6.77;86.52
44453;BME280;30155;52.164;21.236;2022-11-15T13:32:48;100339.41;;;6.75;86.55
44453;BME280;30155;52.164;21.236;2022-11-15T13:37:41;100337.66;;;6.74;86.54
44453;BME280;30155;52.164;21.236;2022-11-15T13:42:33;100332.43;;;6.71;86.57
44453;BME280;30155;52.164;21.236;2022-11-15T13:47:26;100332.87;;;6.72;86.96
44453;BME280;30155;52.164;21.236;2022-11-15T13:52:20;100317.51;;;6.61;86.43
44453;BME280;30155;52.164;21.236;2022-11-15T13:57:17;100323.59;;;6.63;86.74
44453;BME280;30155;52.164;21.236;2022-11-15T14:02:15;100315.75;;;6.60;86.55
44453;BME280;30155;52.164;21.236;2022-11-15T14:07:19;100305.75;;;6.56;86.57
44453;BME280;30155;52.164;21.236;2022-11-15T14:12:35;100310.05;;;6.56;86.81
44453;BME280;30155;52.164;21.236;2022-11-15T14:22:30;100318.18;;;6.54;86.85
44453;BME280;30155;52.164;21.236;2022-11-15T14:27:27;100306.98;;;6.53;86.80
44453;BME280;30155;52.164;21.236;2022-11-15T14:32:22;100291.44;;;6.52;86.93
44453;BME280;30155;52.164;21.236;2022-11-15T14:37:22;100291.44;;;6.52;86.93
44453;BME280;30155;52.164;21.236;2022-11-15T14:42:17;100294.84;;;6.51;86.97
44453;BME280;30155;52.164;21.236;2022-11-15T14:47:08;100295.70;;;6.49;86.94
44453;BME280;30155;52.164;21.236;2022-11-15T14:52:00;100292.59;;;6.47;86.98
44453;BME280;30155;52.164;21.236;2022-11-15T14:56:51;100290.91;;;6.47;87.17
44453;BME280;30155;52.164;21.236;2022-11-15T15:01:42;100286.08;;;6.44;86.85
44453;BME280;30155;52.164;21.236;2022-11-15T15:06:33;100290.73;;;6.41;86.79
44453;BME280;30155;52.164;21.236;2022-11-15T15:11:31;100291.11;;;6.39;87.00
44453;BME280;30155;52.164;21.236;2022-11-15T15:16:24;100283.79;;;6.39;87.16
44453;BME280;30155;52.164;21.236;2022-11-15T15:21:22;100283.36;;;6.39;87.10
44453;BME280;30155;52.164;21.236;2022-11-15T15:26:15;100280.78;;;6.39;87.12
44453;BME280;30155;52.164;21.236;2022-11-15T15:31:09;100283.83;;;6.40;87.15
44453;BME280;30155;52.164;21.236;2022-11-15T15:36:01;100277.28;;;6.37;86.90
44453;BME280;30155;52.164;21.236;2022-11-15T15:40:52;100275.04;;;6.34;86.97
44453;BME280;30155;52.164;21.236;2022-11-15T15:45:44;100274.99;;;6.32;86.96
44453;BME280;30155;52.164;21.236;2022-11-15T15:50:36;100270.60;;;6.29;86.99
44453;BME280;30155;52.164;21.236;2022-11-15T15:55:27;100266.34;;;6.30;86.98
44453;BME280;30155;52.164;21.236;2022-11-15T16:00:20;100266.34;;;6.30;86.98
44453;BME280;30155;52.164;21.236;2022-11-15T16:05:15;100265.86;;;6.29;86.95
44453;BME280;30155;52.164;21.236;2022-11-15T16:10:24;100262.75;;;6.25;86.83
44453;BME280;30155;52.164;21.236;2022-11-15T16:15:16;100255.34;;;6.21;86.92
44453;BME280;30155;52.164;21.236;2022-11-15T16:20:19;100256.58;;;6.20;87.15
44453;BME280;30155;52.164;21.236;2022-11-15T16:25:14;100257.05;;;6.21;87.06
44453;BME280;30155;52.164;21.236;2022-11-15T16:30:10;100258.34;;;6.21;87.04
44453;BME280;30155;52.164;21.236;2022-11-15T16:35:02;100249.75;;;6.22;87.10
44453;BME280;30155;52.164;21.236;2022-11-15T16:39:56;100249.75;;;6.22;87.08
44453;BME280;30155;52.164;21.236;2022-11-15T16:44:47;100248.37;;;6.19;87.04
44453;BME280;30155;52.164;21.236;2022-11-15T16:49:42;100252.17;;;6.16;87.02
44453;BME280;30155;52.164;21.236;2022-11-15T16:54:34;100264.52;;;6.11;86.94
44453;BME280;30155;52.164;21.236;2022-11-15T16:59:26;100256.72;;;6.08;87.11
44453;BME280;30155;52.164;21.236;2022-11-15T17:04:18;100264.36;;;6.05;87.04
44453;BME280;30155;52.164;21.236;2022-11-15T17:09:20;100257.09;;;6.06;87.24
44453;BME280;30155;52.164;21.236;2022-11-15T17:14:15;100241.95;;;6.04;87.23
44453;BME280;30155;52.164;21.236;2022-11-15T17:19:15;100257.66;;;5.96;87.17
44453;BME280;30155;52.164;21.236;2022-11-15T17:24:08;100254.57;;;5.95;87.21
44453;BME280;30155;52.164;21.236;2022-11-15T17:29:00;100244.58;;;5.91;87.10
44453;BME280;30155;52.164;21.236;2022-11-15T17:33:52;100242.00;;;5.91;87.12
44453;BME280;30155;52.164;21.236;2022-11-15T17:38:43;100240.66;;;5.90;87.26
44453;BME280;30155;52.164;21.236;2022-11-15T17:43:37;100241.04;;;5.88;87.31
44453;BME280;30155;52.164;21.236;2022-11-15T17:48:29;100237.88;;;5.82;87.33
44453;BME280;30155;52.164;21.236;2022-11-15T17:53:20;100241.59;;;5.78;87.35
44453;BME280;30155;52.164;21.236;2022-11-15T17:58:11;100241.11;;;5.75;87.61
44453;BME280;30155;52.164;21.236;2022-11-15T18:03:02;100242.77;;;5.73;87.66
44453;BME280;30155;52.164;21.236;2022-11-15T18:07:53;100247.46;;;5.72;87.62
44453;BME280;30155;52.164;21.236;2022-11-15T18:12:44;100237.84;;;5.66;87.50
44453;BME280;30155;52.164;21.236;2022-11-15T18:17:39;100232.25;;;5.65;87.62
44453;BME280;30155;52.164;21.236;2022-11-15T18:22:32;100222.58;;;5.58;87.46
44453;BME280;30155;52.164;21.236;2022-11-15T18:27:23;100212.98;;;5.54;87.87
44453;BME280;30155;52.164;21.236;2022-11-15T18:32:14;100223.77;;;5.55;87.96
44453;BME280;30155;52.164;21.236;2022-11-15T18:37:07;100221.47;;;5.50;87.83
44453;BME280;30155;52.164;21.236;2022-11-15T18:41:58;100218.84;;;5.48;87.77
44453;BME280;30155;52.164;21.236;2022-11-15T18:46:50;100217.70;;;5.39;87.81
44453;BME280;30155;52.164;21.236;2022-11-15T18:51:41;100216.86;;;5.40;88.07
44453;BME280;30155;52.164;21.236;2022-11-15T18:56:32;100228.09;;;5.42;88.08
44453;BME280;30155;52.164;21.236;2022-11-15T19:01:26;100227.13;;;5.38;87.98
44453;BME280;30155;52.164;21.236;2022-11-15T19:06:26;100228.83;;;5.38;87.96
44453;BME280;30155;52.164;21.236;2022-11-15T19:11:25;100236.20;;;5.40;88.05
44453;BME280;30155;52.164;21.236;2022-11-15T19:16:15;100229.75;;;5.40;87.93
44453;BME280;30155;52.164;21.236;2022-11-15T19:21:09;100219.37;;;5.37;87.87
44453;BME280;30155;52.164;21.236;2022-11-15T19:26:09;100223.63;;;5.36;87.75
44453;BME280;30155;52.164;21.236;2022-11-15T19:31:12;100221.89;;;5.35;87.74
44453;BME280;30155;52.164;21.236;2022-11-15T19:36:06;100218.35;;;5.31;87.92
44453;BME280;30155;52.164;21.236;2022-11-15T19:41:01;100210.89;;;5.26;87.70
44453;BME280;30155;52.164;21.236;2022-11-15T19:45:56;100209.13;;;5.25;87.82
44453;BME280;30155;52.164;21.236;2022-11-15T19:50:49;100212.08;;;5.23;87.84
44453;BME280;30155;52.164;21.236;2022-11-15T19:55:58;100208.20;;;5.23;87.90
44453;BME280;30155;52.164;21.236;2022-11-15T20:00:47;100206.81;;;5.20;87.64
44453;BME280;30155;52.164;21.236;2022-11-15T20:05:39;100209.50;;;5.23;87.85
44453;BME280;30155;52.164;21.236;2022-11-15T20:10:30;100205.16;;;5.22;87.86
44453;BME280;30155;52.164;21.236;2022-11-15T20:15:21;100194.83;;;5.21;87.74
44453;BME280;30155;52.164;21.236;2022-11-15T20:20:12;100188.61;;;5.14;87.76
44453;BME280;30155;52.164;21.236;2022-11-15T20:25:04;100186.95;;;5.16;88.00
44453;BME280;30155;52.164;21.236;2022-11-15T20:30:02;100192.20;;;5.19;88.07
44453;BME280;30155;52.164;21.236;2022-11-15T20:34:54;100192.20;;;5.19;88.00
44453;BME280;30155;52.164;21.236;2022-11-15T20:39:45;100184.91;;;5.20;88.10
44453;BME280;30155;52.164;21.236;2022-11-15T20:44:37;100187.96;;;5.21;88.00
44453;BME280;30155;52.164;21.236;2022-11-15T20:49:28;100193.12;;;5.21;88.11
44453;BME280;30155;52.164;21.236;2022-11-15T20:54:19;100197.80;;;5.20;88.13
44453;BME280;30155;52.164;21.236;2022-11-15T20:59:11;100198.59;;;5.18;87.99
44453;BME280;30155;52.164;21.236;2022-11-15T21:04:02;100194.67;;;5.16;88.17
44453;BME280;30155;52.164;21.236;2022-11-15T21:08:54;100189.89;;;5.14;87.94
44453;BME280;30155;52.164;21.236;2022-11-15T21:14:04;100182.53;;;5.12;88.10
44453;BME280;30155;52.164;21.236;2022-11-15T21:18:55;100178.20;;;5.11;88.05
44453;BME280;30155;52.164;21.236;2022-11-15T21:23:47;100184.59;;;5.09;88.13
44453;BME280;30155;52.164;21.236;2022-11-15T21:28:40;100179.48;;;5.11;88.30
44453;BME280;30155;52.164;21.236;2022-11-15T21:33:33;100184.31;;;5.14;88.35
44453;BME280;30155;52.164;21.236;2022-11-15T21:38:24;100177.01;;;5.14;88.06
44453;BME280;30155;52.164;21.236;2022-11-15T21:49:14;100174.44;;;5.14;88.36
44453;BME280;30155;52.164;21.236;2022-11-15T21:54:07;100163.28;;;5.15;88.35
44453;BME280;30155;52.164;21.236;2022-11-15T22:04:51;100140.78;;;5.09;88.41
44453;BME280;30155;52.164;21.236;2022-11-15T22:09:54;100140.02;;;5.12;88.50
44453;BME280;30155;52.164;21.236;2022-11-15T22:14:57;100129.38;;;5.15;88.59
44453;BME280;30155;52.164;21.236;2022-11-15T22:19:48;100127.77;;;5.19;88.63
44453;BME280;30155;52.164;21.236;2022-11-15T22:24:42;100114.88;;;5.19;88.59
44453;BME280;30155;52.164;21.236;2022-11-15T22:29:33;100107.20;;;5.21;88.64
44453;BME280;30155;52.164;21.236;2022-11-15T22:34:24;100096.47;;;5.21;88.58
44453;BME280;30155;52.164;21.236;2022-11-15T22:39:37;100098.57;;;5.20;88.63
44453;BME280;30155;52.164;21.236;2022-11-15T22:44:32;100099.48;;;5.22;88.72
44453;BME280;30155;52.164;21.236;2022-11-15T22:49:23;100096.09;;;5.23;88.71
44453;BME280;30155;52.164;21.236;2022-11-15T22:54:14;100091.36;;;5.23;88.71
44453;BME280;30155;52.164;21.236;2022-11-15T22:59:05;100083.25;;;5.25;88.79
44453;BME280;30155;52.164;21.236;2022-11-15T23:03:56;100083.25;;;5.25;88.73
44453;BME280;30155;52.164;21.236;2022-11-15T23:08:48;100081.59;;;5.27;88.84
44453;BME280;30155;52.164;21.236;2022-11-15T23:13:39;100077.28;;;5.26;88.79
44453;BME280;30155;52.164;21.236;2022-11-15T23:18:34;100066.83;;;5.21;88.82
44453;BME280;30155;52.164;21.236;2022-11-15T23:23:28;100069.83;;;5.21;88.92
44453;BME280;30155;52.164;21.236;2022-11-15T23:28:19;100059.00;;;5.18;88.92
44453;BME280;30155;52.164;21.236;2022-11-15T23:33:14;100054.70;;;5.17;89.04
44453;BME280;30155;52.164;21.236;2022-11-15T23:38:24;100057.71;;;5.18;89.07
44453;BME280;30155;52.164;21.236;2022-11-15T23:43:15;100068.39;;;5.16;89.05
44453;BME280;30155;52.164;21.236;2022-11-15T23:48:08;100066.36;;;5.20;89.16
44453;BME280;30155;52.164;21.236;2022-11-15T23:52:59;100056.94;;;5.21;89.03
44453;BME280;30155;52.164;21.236;2022-11-15T23:57:50;100056.14;;;5.23;89.11
